sensor_id;sensor_type;location;lat;lon;timestamp;temperature;humidity
15947;DHT22;8072;52.554;7.966;2023-05-29T00:00:16;10.90;99.90
15947;DHT22;8072;52.554;7.966;2023-05-29T00:02:44;10.80;99.90
15947;DHT22;8072;52.554;7.966;2023-05-29T00:05:11;10.80;99.90
15947;DHT22;8072;52.554;7.966;2023-05-29T00:07:38;10.70;99.90
15947;DHT22;8072;52.554;7.966;2023-05-29T00:10:08;10.70;99.90
15947;DHT22;8072;52.554;7.966;2023-05-29T00:12:35;10.70;99.90
15947;DHT22;8072;52.554;7.966;2023-05-29T00:15:01;10.60;99.90
15947;DHT22;8072;52.554;7.966;2023-05-29T00:17:29;10.60;99.90
15947;DHT22;8072;52.554;7.966;2023-05-29T00:19:58;10.60;99.90
15947;DHT22;8072;52.554;7.966;2023-05-29T00:22:24;10.60;99.90
15947;DHT22;8072;52.554;7.966;2023-05-29T00:24:51;10.50;99.90
15947;DHT22;8072;52.554;7.966;2023-05-29T00:27:17;10.50;99.90
15947;DHT22;8072;52.554;7.966;2023-05-29T00:29:43;10.50;99.90
15947;DHT22;8072;52.554;7.966;2023-05-29T00:32:09;10.50;99.90
15947;DHT22;8072;52.554;7.966;2023-05-29T00:34:35;10.50;99.90
15947;DHT22;8072;52.554;7.966;2023-05-29T00:37:01;10.50;99.90
15947;DHT22;8072;52.554;7.966;2023-05-29T00:39:27;10.50;99.90
15947;DHT22;8072;52.554;7.966;2023-05-29T00:41:53;10.50;99.90
15947;DHT22;8072;52.554;7.966;2023-05-29T00:44:19;10.50;99.90
15947;DHT22;8072;52.554;7.966;2023-05-29T00:46:49;10.50;99.90
15947;DHT22;8072;52.554;7.966;2023-05-29T00:49:16;10.40;99.90
15947;DHT22;8072;52.554;7.966;2023-05-29T00:51:43;10.50;99.90
15947;DHT22;8072;52.554;7.966;2023-05-29T00:54:12;10.40;99.90
15947;DHT22;8072;52.554;7.966;2023-05-29T00:56:39;10.40;99.90
15947;DHT22;8072;52.554;7.966;2023-05-29T00:59:08;10.40;99.90
15947;DHT22;8072;52.554;7.966;2023-05-29T01:01:34;10.40;99.90
15947;DHT22;8072;52.554;7.966;2023-05-29T01:04:03;10.30;99.90
15947;DHT22;8072;52.554;7.966;2023-05-29T01:06:32;10.30;99.90
15947;DHT22;8072;52.554;7.966;2023-05-29T01:08:58;10.30;99.90
15947;DHT22;8072;52.554;7.966;2023-05-29T01:11:56;10.20;99.90
15947;DHT22;8072;52.554;7.966;2023-05-29T01:17:54;10.20;99.90
15947;DHT22;8072;52.554;7.966;2023-05-29T01:22:49;10.20;99.90
15947;DHT22;8072;52.554;7.966;2023-05-29T01:25:50;10.20;99.90
15947;DHT22;8072;52.554;7.966;2023-05-29T01:28:26;10.20;99.90
15947;DHT22;8072;52.554;7.966;2023-05-29T01:30:54;10.10;99.90
15947;DHT22;8072;52.554;7.966;2023-05-29T01:33:20;10.10;99.90
15947;DHT22;8072;52.554;7.966;2023-05-29T01:35:45;10.10;99.90
15947;DHT22;8072;52.554;7.966;2023-05-29T01:38:11;10.00;99.90
15947;DHT22;8072;52.554;7.966;2023-05-29T01:40:37;10.00;99.90
15947;DHT22;8072;52.554;7.966;2023-05-29T01:43:03;9.90;99.90
15947;DHT22;8072;52.554;7.966;2023-05-29T01:45:30;9.90;99.90
15947;DHT22;8072;52.554;7.966;2023-05-29T01:47:56;9.90;99.90
15947;DHT22;8072;52.554;7.966;2023-05-29T01:50:23;9.90;99.90
15947;DHT22;8072;52.554;7.966;2023-05-29T01:52:50;9.90;99.90
15947;DHT22;8072;52.554;7.966;2023-05-29T01:55:16;9.80;99.90
15947;DHT22;8072;52.554;7.966;2023-05-29T01:57:43;9.80;99.90
15947;DHT22;8072;52.554;7.966;2023-05-29T02:00:09;9.80;99.90
15947;DHT22;8072;52.554;7.966;2023-05-29T02:02:38;9.80;99.90
15947;DHT22;8072;52.554;7.966;2023-05-29T02:05:06;9.80;99.90
15947;DHT22;8072;52.554;7.966;2023-05-29T02:07:34;9.80;99.90
15947;DHT22;8072;52.554;7.966;2023-05-29T02:09:59;9.70;99.90
15947;DHT22;8072;52.554;7.966;2023-05-29T02:12:25;9.80;99.90
15947;DHT22;8072;52.554;7.966;2023-05-29T02:14:51;9.80;99.90
15947;DHT22;8072;52.554;7.966;2023-05-29T02:17:17;9.80;99.90
15947;DHT22;8072;52.554;7.966;2023-05-29T02:19:44;9.80;99.90
15947;DHT22;8072;52.554;7.966;2023-05-29T02:22:10;9.80;99.90
15947;DHT22;8072;52.554;7.966;2023-05-29T02:24:36;9.70;99.90
15947;DHT22;8072;52.554;7.966;2023-05-29T02:27:02;9.70;99.90
15947;DHT22;8072;52.554;7.966;2023-05-29T02:29:29;9.70;99.90
15947;DHT22;8072;52.554;7.966;2023-05-29T02:31:56;9.70;99.90
15947;DHT22;8072;52.554;7.966;2023-05-29T02:34:21;9.70;99.90
15947;DHT22;8072;52.554;7.966;2023-05-29T02:36:50;9.70;99.90
15947;DHT22;8072;52.554;7.966;2023-05-29T02:39:20;9.70;99.90
15947;DHT22;8072;52.554;7.966;2023-05-29T02:41:46;9.60;99.90
15947;DHT22;8072;52.554;7.966;2023-05-29T02:44:12;9.60;99.90
15947;DHT22;8072;52.554;7.966;2023-05-29T02:46:38;9.60;99.90
15947;DHT22;8072;52.554;7.966;2023-05-29T02:49:03;9.60;99.90
15947;DHT22;8072;52.554;7.966;2023-05-29T02:51:29;9.60;99.90
15947;DHT22;8072;52.554;7.966;2023-05-29T02:53:55;9.50;99.90
15947;DHT22;8072;52.554;7.966;2023-05-29T02:56:21;9.60;99.90
15947;DHT22;8072;52.554;7.966;2023-05-29T02:58:50;9.60;99.90
15947;DHT22;8072;52.554;7.966;2023-05-29T03:01:17;9.60;99.90
15947;DHT22;8072;52.554;7.966;2023-05-29T03:03:43;9.70;99.90
15947;DHT22;8072;52.554;7.966;2023-05-29T03:06:08;9.70;99.90
15947;DHT22;8072;52.554;7.966;2023-05-29T03:08:35;9.70;99.90
15947;DHT22;8072;52.554;7.966;2023-05-29T03:11:08;9.70;99.90
15947;DHT22;8072;52.554;7.966;2023-05-29T03:13:37;9.80;99.90
15947;DHT22;8072;52.554;7.966;2023-05-29T03:16:03;9.70;99.90
15947;DHT22;8072;52.554;7.966;2023-05-29T03:18:29;9.70;99.90
15947;DHT22;8072;52.554;7.966;2023-05-29T03:20:56;9.70;99.90
15947;DHT22;8072;52.554;7.966;2023-05-29T03:23:22;9.70;99.90
15947;DHT22;8072;52.554;7.966;2023-05-29T03:25:49;9.70;99.90
15947;DHT22;8072;52.554;7.966;2023-05-29T03:28:14;9.70;99.90
15947;DHT22;8072;52.554;7.966;2023-05-29T03:30:40;9.70;99.90
15947;DHT22;8072;52.554;7.966;2023-05-29T03:33:06;9.70;99.90
15947;DHT22;8072;52.554;7.966;2023-05-29T03:35:32;9.70;99.90
15947;DHT22;8072;52.554;7.966;2023-05-29T03:37:58;9.70;99.90
15947;DHT22;8072;52.554;7.966;2023-05-29T03:40:24;9.60;99.90
15947;DHT22;8072;52.554;7.966;2023-05-29T03:42:49;9.60;99.90
15947;DHT22;8072;52.554;7.966;2023-05-29T03:45:17;9.60;99.90
15947;DHT22;8072;52.554;7.966;2023-05-29T03:47:44;9.50;99.90
15947;DHT22;8072;52.554;7.966;2023-05-29T03:50:10;9.50;99.90
15947;DHT22;8072;52.554;7.966;2023-05-29T03:52:40;9.40;99.90
15947;DHT22;8072;52.554;7.966;2023-05-29T03:55:09;9.50;99.90
15947;DHT22;8072;52.554;7.966;2023-05-29T03:57:39;9.40;99.90
15947;DHT22;8072;52.554;7.966;2023-05-29T04:00:10;9.40;99.90
15947;DHT22;8072;52.554;7.966;2023-05-29T04:02:40;9.40;99.90
15947;DHT22;8072;52.554;7.966;2023-05-29T04:05:07;9.40;99.90
15947;DHT22;8072;52.554;7.966;2023-05-29T04:07:37;9.40;99.90
15947;DHT22;8072;52.554;7.966;2023-05-29T04:10:05;9.40;99.90
15947;DHT22;8072;52.554;7.966;2023-05-29T04:12:32;9.40;99.90
15947;DHT22;8072;52.554;7.966;2023-05-29T04:14:59;9.40;99.90
15947;DHT22;8072;52.554;7.966;2023-05-29T04:17:24;9.40;99.90
15947;DHT22;8072;52.554;7.966;2023-05-29T04:19:50;9.40;99.90
15947;DHT22;8072;52.554;7.966;2023-05-29T04:22:16;9.40;99.90
15947;DHT22;8072;52.554;7.966;2023-05-29T04:24:44;9.40;99.90
15947;DHT22;8072;52.554;7.966;2023-05-29T04:27:10;9.40;99.90
15947;DHT22;8072;52.554;7.966;2023-05-29T04:29:42;9.50;99.90
15947;DHT22;8072;52.554;7.966;2023-05-29T04:32:11;9.50;99.90
15947;DHT22;8072;52.554;7.966;2023-05-29T04:34:37;9.40;99.90
15947;DHT22;8072;52.554;7.966;2023-05-29T04:37:06;9.40;99.90
15947;DHT22;8072;52.554;7.966;2023-05-29T04:39:32;9.50;99.90
15947;DHT22;8072;52.554;7.966;2023-05-29T04:41:58;9.50;99.90
15947;DHT22;8072;52.554;7.966;2023-05-29T04:44:27;9.50;99.90
15947;DHT22;8072;52.554;7.966;2023-05-29T04:46:54;9.50;99.90
15947;DHT22;8072;52.554;7.966;2023-05-29T04:49:22;9.50;99.90
15947;DHT22;8072;52.554;7.966;2023-05-29T04:51:48;9.60;99.90
15947;DHT22;8072;52.554;7.966;2023-05-29T04:54:13;9.60;99.90
15947;DHT22;8072;52.554;7.966;2023-05-29T04:56:42;9.60;99.90
15947;DHT22;8072;52.554;7.966;2023-05-29T04:59:08;9.60;99.90
15947;DHT22;8072;52.554;7.966;2023-05-29T05:01:34;9.60;99.90
15947;DHT22;8072;52.554;7.966;2023-05-29T05:04:00;9.70;99.90
15947;DHT22;8072;52.554;7.966;2023-05-29T05:06:26;9.70;99.90
15947;DHT22;8072;52.554;7.966;2023-05-29T05:08:53;9.70;99.90
15947;DHT22;8072;52.554;7.966;2023-05-29T05:11:19;9.80;99.90
15947;DHT22;8072;52.554;7.966;2023-05-29T05:13:45;9.80;99.90
15947;DHT22;8072;52.554;7.966;2023-05-29T05:16:11;9.90;99.90
15947;DHT22;8072;52.554;7.966;2023-05-29T05:18:38;9.90;99.90
15947;DHT22;8072;52.554;7.966;2023-05-29T05:21:04;10.00;99.90
15947;DHT22;8072;52.554;7.966;2023-05-29T05:23:30;10.00;99.90
15947;DHT22;8072;52.554;7.966;2023-05-29T05:25:56;10.10;99.90
15947;DHT22;8072;52.554;7.966;2023-05-29T05:28:22;10.20;99.90
15947;DHT22;8072;52.554;7.966;2023-05-29T05:30:47;10.30;99.90
15947;DHT22;8072;52.554;7.966;2023-05-29T05:33:13;10.30;99.90
15947;DHT22;8072;52.554;7.966;2023-05-29T05:35:39;10.30;99.90
15947;DHT22;8072;52.554;7.966;2023-05-29T05:38:05;10.40;99.90
15947;DHT22;8072;52.554;7.966;2023-05-29T05:40:32;10.40;99.90
15947;DHT22;8072;52.554;7.966;2023-05-29T05:42:58;10.40;99.90
15947;DHT22;8072;52.554;7.966;2023-05-29T05:45:23;10.40;99.90
15947;DHT22;8072;52.554;7.966;2023-05-29T05:47:49;10.40;99.90
15947;DHT22;8072;52.554;7.966;2023-05-29T05:50:15;10.40;99.90
15947;DHT22;8072;52.554;7.966;2023-05-29T05:52:41;10.50;99.90
15947;DHT22;8072;52.554;7.966;2023-05-29T05:55:07;10.50;99.90
15947;DHT22;8072;52.554;7.966;2023-05-29T05:57:33;10.60;99.90
15947;DHT22;8072;52.554;7.966;2023-05-29T06:00:05;10.70;99.90
15947;DHT22;8072;52.554;7.966;2023-05-29T06:02:38;10.70;99.90
15947;DHT22;8072;52.554;7.966;2023-05-29T06:05:04;10.90;99.90
15947;DHT22;8072;52.554;7.966;2023-05-29T06:07:32;11.00;99.90
15947;DHT22;8072;52.554;7.966;2023-05-29T06:09:58;11.00;99.90
15947;DHT22;8072;52.554;7.966;2023-05-29T06:12:24;11.00;99.90
15947;DHT22;8072;52.554;7.966;2023-05-29T06:14:50;11.10;99.90
15947;DHT22;8072;52.554;7.966;2023-05-29T06:17:16;11.10;99.90
15947;DHT22;8072;52.554;7.966;2023-05-29T06:19:41;11.20;99.90
15947;DHT22;8072;52.554;7.966;2023-05-29T06:22:07;11.20;99.90
15947;DHT22;8072;52.554;7.966;2023-05-29T06:24:33;11.20;99.90
15947;DHT22;8072;52.554;7.966;2023-05-29T06:26:58;11.20;99.90
15947;DHT22;8072;52.554;7.966;2023-05-29T06:29:24;11.20;99.90
15947;DHT22;8072;52.554;7.966;2023-05-29T06:31:50;11.20;99.90
15947;DHT22;8072;52.554;7.966;2023-05-29T06:34:16;11.20;99.90
15947;DHT22;8072;52.554;7.966;2023-05-29T06:36:42;11.30;99.90
15947;DHT22;8072;52.554;7.966;2023-05-29T06:39:09;11.40;99.90
15947;DHT22;8072;52.554;7.966;2023-05-29T06:41:34;11.40;99.90
15947;DHT22;8072;52.554;7.966;2023-05-29T06:44:00;11.50;99.90
15947;DHT22;8072;52.554;7.966;2023-05-29T06:46:26;11.50;99.90
15947;DHT22;8072;52.554;7.966;2023-05-29T06:48:52;11.50;99.90
15947;DHT22;8072;52.554;7.966;2023-05-29T06:51:17;11.50;99.90
15947;DHT22;8072;52.554;7.966;2023-05-29T06:53:43;11.60;99.90
15947;DHT22;8072;52.554;7.966;2023-05-29T06:56:09;11.70;99.90
15947;DHT22;8072;52.554;7.966;2023-05-29T06:58:35;11.70;99.90
15947;DHT22;8072;52.554;7.966;2023-05-29T07:01:01;11.80;99.90
15947;DHT22;8072;52.554;7.966;2023-05-29T07:03:27;11.80;99.90
15947;DHT22;8072;52.554;7.966;2023-05-29T07:05:53;11.80;99.90
15947;DHT22;8072;52.554;7.966;2023-05-29T07:08:19;11.80;99.90
15947;DHT22;8072;52.554;7.966;2023-05-29T07:10:45;11.80;99.90
15947;DHT22;8072;52.554;7.966;2023-05-29T07:13:15;11.90;99.90
15947;DHT22;8072;52.554;7.966;2023-05-29T07:15:42;12.00;99.90
15947;DHT22;8072;52.554;7.966;2023-05-29T07:18:09;12.00;99.90
15947;DHT22;8072;52.554;7.966;2023-05-29T07:20:36;12.10;99.90
15947;DHT22;8072;52.554;7.966;2023-05-29T07:23:02;12.20;99.90
15947;DHT22;8072;52.554;7.966;2023-05-29T07:25:28;12.20;99.90
15947;DHT22;8072;52.554;7.966;2023-05-29T07:27:53;12.30;99.90
15947;DHT22;8072;52.554;7.966;2023-05-29T07:30:19;12.40;99.90
15947;DHT22;8072;52.554;7.966;2023-05-29T07:32:45;12.40;99.90
15947;DHT22;8072;52.554;7.966;2023-05-29T07:35:11;12.50;99.90
15947;DHT22;8072;52.554;7.966;2023-05-29T07:37:36;12.50;99.90
15947;DHT22;8072;52.554;7.966;2023-05-29T07:40:03;12.50;99.90
15947;DHT22;8072;52.554;7.966;2023-05-29T07:42:35;12.60;99.90
15947;DHT22;8072;52.554;7.966;2023-05-29T07:45:01;12.60;99.90
15947;DHT22;8072;52.554;7.966;2023-05-29T07:47:26;12.70;99.90
15947;DHT22;8072;52.554;7.966;2023-05-29T07:49:52;12.70;99.90
15947;DHT22;8072;52.554;7.966;2023-05-29T07:52:18;12.90;99.90
15947;DHT22;8072;52.554;7.966;2023-05-29T07:54:44;12.90;99.90
15947;DHT22;8072;52.554;7.966;2023-05-29T07:57:10;13.00;99.90
15947;DHT22;8072;52.554;7.966;2023-05-29T07:59:37;13.10;99.90
15947;DHT22;8072;52.554;7.966;2023-05-29T08:02:03;13.10;99.90
15947;DHT22;8072;52.554;7.966;2023-05-29T08:04:29;13.20;99.90
15947;DHT22;8072;52.554;7.966;2023-05-29T08:06:56;13.20;99.90
15947;DHT22;8072;52.554;7.966;2023-05-29T08:09:22;13.20;99.90
15947;DHT22;8072;52.554;7.966;2023-05-29T08:11:47;13.20;99.90
15947;DHT22;8072;52.554;7.966;2023-05-29T08:14:14;13.30;99.90
15947;DHT22;8072;52.554;7.966;2023-05-29T08:16:41;13.40;99.90
15947;DHT22;8072;52.554;7.966;2023-05-29T08:19:07;13.50;99.90
15947;DHT22;8072;52.554;7.966;2023-05-29T08:21:33;13.60;99.90
15947;DHT22;8072;52.554;7.966;2023-05-29T08:23:59;13.70;99.90
15947;DHT22;8072;52.554;7.966;2023-05-29T08:26:28;13.70;99.90
15947;DHT22;8072;52.554;7.966;2023-05-29T08:28:54;13.80;99.90
15947;DHT22;8072;52.554;7.966;2023-05-29T08:31:20;13.80;99.90
15947;DHT22;8072;52.554;7.966;2023-05-29T08:33:46;13.90;99.90
15947;DHT22;8072;52.554;7.966;2023-05-29T08:36:11;14.00;99.90
15947;DHT22;8072;52.554;7.966;2023-05-29T08:38:37;14.10;99.90
15947;DHT22;8072;52.554;7.966;2023-05-29T08:41:04;14.10;99.90
15947;DHT22;8072;52.554;7.966;2023-05-29T08:43:32;14.20;99.90
15947;DHT22;8072;52.554;7.966;2023-05-29T08:46:02;14.20;99.90
15947;DHT22;8072;52.554;7.966;2023-05-29T08:48:29;14.30;99.90
15947;DHT22;8072;52.554;7.966;2023-05-29T08:50:57;14.30;99.90
15947;DHT22;8072;52.554;7.966;2023-05-29T08:53:24;14.30;99.90
15947;DHT22;8072;52.554;7.966;2023-05-29T08:55:51;14.40;99.90
15947;DHT22;8072;52.554;7.966;2023-05-29T08:58:19;14.40;99.90
15947;DHT22;8072;52.554;7.966;2023-05-29T09:00:47;14.50;99.90
15947;DHT22;8072;52.554;7.966;2023-05-29T09:03:13;14.50;99.90
15947;DHT22;8072;52.554;7.966;2023-05-29T09:05:39;14.50;99.90
15947;DHT22;8072;52.554;7.966;2023-05-29T09:08:09;14.60;99.90
15947;DHT22;8072;52.554;7.966;2023-05-29T09:10:39;14.70;99.90
15947;DHT22;8072;52.554;7.966;2023-05-29T09:13:05;14.80;99.90
15947;DHT22;8072;52.554;7.966;2023-05-29T09:15:31;14.90;99.90
15947;DHT22;8072;52.554;7.966;2023-05-29T09:17:58;14.90;99.90
15947;DHT22;8072;52.554;7.966;2023-05-29T09:20:24;15.00;99.90
15947;DHT22;8072;52.554;7.966;2023-05-29T09:23:02;15.00;99.90
15947;DHT22;8072;52.554;7.966;2023-05-29T09:25:30;15.00;99.90
15947;DHT22;8072;52.554;7.966;2023-05-29T09:28:06;15.20;99.90
15947;DHT22;8072;52.554;7.966;2023-05-29T09:33:01;15.40;99.90
15947;DHT22;8072;52.554;7.966;2023-05-29T09:35:53;15.50;99.90
15947;DHT22;8072;52.554;7.966;2023-05-29T09:38:20;15.50;99.90
15947;DHT22;8072;52.554;7.966;2023-05-29T09:40:46;15.50;99.90
15947;DHT22;8072;52.554;7.966;2023-05-29T09:43:14;15.60;99.90
15947;DHT22;8072;52.554;7.966;2023-05-29T09:45:47;15.60;99.90
15947;DHT22;8072;52.554;7.966;2023-05-29T09:50:40;15.80;99.90
15947;DHT22;8072;52.554;7.966;2023-05-29T09:53:21;16.00;99.90
15947;DHT22;8072;52.554;7.966;2023-05-29T09:55:48;16.10;99.90
15947;DHT22;8072;52.554;7.966;2023-05-29T09:58:17;16.20;99.90
15947;DHT22;8072;52.554;7.966;2023-05-29T10:00:43;16.30;99.90
15947;DHT22;8072;52.554;7.966;2023-05-29T10:03:10;16.30;99.90
15947;DHT22;8072;52.554;7.966;2023-05-29T10:05:39;16.30;99.90
15947;DHT22;8072;52.554;7.966;2023-05-29T10:08:17;16.30;99.90
15947;DHT22;8072;52.554;7.966;2023-05-29T10:10:46;16.20;99.90
15947;DHT22;8072;52.554;7.966;2023-05-29T10:13:14;16.30;99.90
15947;DHT22;8072;52.554;7.966;2023-05-29T10:15:45;16.50;99.90
15947;DHT22;8072;52.554;7.966;2023-05-29T10:19:05;16.50;99.90
15947;DHT22;8072;52.554;7.966;2023-05-29T10:21:12;16.50;99.90
15947;DHT22;8072;52.554;7.966;2023-05-29T10:23:39;16.50;99.90
15947;DHT22;8072;52.554;7.966;2023-05-29T10:26:12;16.70;99.90
15947;DHT22;8072;52.554;7.966;2023-05-29T10:28:46;16.80;99.90
15947;DHT22;8072;52.554;7.966;2023-05-29T10:31:18;16.80;99.90
15947;DHT22;8072;52.554;7.966;2023-05-29T10:36:22;16.80;99.90
15947;DHT22;8072;52.554;7.966;2023-05-29T10:38:52;16.80;99.90
15947;DHT22;8072;52.554;7.966;2023-05-29T10:44:02;17.00;99.90
15947;DHT22;8072;52.554;7.966;2023-05-29T10:49:18;17.30;99.90
15947;DHT22;8072;52.554;7.966;2023-05-29T10:51:45;17.30;99.90
15947;DHT22;8072;52.554;7.966;2023-05-29T10:54:11;17.30;99.90
15947;DHT22;8072;52.554;7.966;2023-05-29T10:56:37;17.40;99.90
15947;DHT22;8072;52.554;7.966;2023-05-29T10:59:03;17.40;99.90
15947;DHT22;8072;52.554;7.966;2023-05-29T11:01:30;17.50;99.90
15947;DHT22;8072;52.554;7.966;2023-05-29T11:06:48;17.60;99.90
15947;DHT22;8072;52.554;7.966;2023-05-29T11:20:04;17.90;99.90
15947;DHT22;8072;52.554;7.966;2023-05-29T11:25:13;18.00;99.90
15947;DHT22;8072;52.554;7.966;2023-05-29T11:27:40;17.90;99.90
15947;DHT22;8072;52.554;7.966;2023-05-29T11:30:06;18.00;99.90
15947;DHT22;8072;52.554;7.966;2023-05-29T11:32:34;18.10;99.90
15947;DHT22;8072;52.554;7.966;2023-05-29T11:35:07;18.10;99.90
15947;DHT22;8072;52.554;7.966;2023-05-29T11:37:35;18.20;99.90
15947;DHT22;8072;52.554;7.966;2023-05-29T11:40:09;18.40;99.90
15947;DHT22;8072;52.554;7.966;2023-05-29T11:42:45;18.40;99.90
15947;DHT22;8072;52.554;7.966;2023-05-29T11:45:12;18.40;99.90
15947;DHT22;8072;52.554;7.966;2023-05-29T11:47:55;18.40;99.90
15947;DHT22;8072;52.554;7.966;2023-05-29T11:50:22;18.40;99.90
15947;DHT22;8072;52.554;7.966;2023-05-29T11:52:48;18.50;99.90
15947;DHT22;8072;52.554;7.966;2023-05-29T11:55:14;18.70;99.90
15947;DHT22;8072;52.554;7.966;2023-05-29T11:57:40;18.90;99.90
15947;DHT22;8072;52.554;7.966;2023-05-29T12:00:06;18.90;99.90
15947;DHT22;8072;52.554;7.966;2023-05-29T12:02:33;18.80;99.90
15947;DHT22;8072;52.554;7.966;2023-05-29T12:05:06;18.80;99.90
15947;DHT22;8072;52.554;7.966;2023-05-29T12:07:38;18.90;99.90
15947;DHT22;8072;52.554;7.966;2023-05-29T12:10:15;19.10;99.90
15947;DHT22;8072;52.554;7.966;2023-05-29T12:12:42;19.10;99.90
15947;DHT22;8072;52.554;7.966;2023-05-29T12:15:08;19.20;99.90
15947;DHT22;8072;52.554;7.966;2023-05-29T12:17:35;19.20;99.90
15947;DHT22;8072;52.554;7.966;2023-05-29T12:20:03;19.10;99.90
15947;DHT22;8072;52.554;7.966;2023-05-29T12:22:33;19.10;99.90
15947;DHT22;8072;52.554;7.966;2023-05-29T12:25:11;19.10;99.90
15947;DHT22;8072;52.554;7.966;2023-05-29T12:27:42;19.20;99.90
15947;DHT22;8072;52.554;7.966;2023-05-29T12:30:19;19.20;99.90
15947;DHT22;8072;52.554;7.966;2023-05-29T12:32:47;19.20;99.90
15947;DHT22;8072;52.554;7.966;2023-05-29T12:35:17;19.20;99.90
15947;DHT22;8072;52.554;7.966;2023-05-29T12:37:56;19.20;99.90
15947;DHT22;8072;52.554;7.966;2023-05-29T12:40:27;19.20;99.90
15947;DHT22;8072;52.554;7.966;2023-05-29T12:43:04;19.30;99.90
15947;DHT22;8072;52.554;7.966;2023-05-29T12:45:32;19.40;99.90
15947;DHT22;8072;52.554;7.966;2023-05-29T12:48:00;19.40;99.90
15947;DHT22;8072;52.554;7.966;2023-05-29T12:50:30;19.50;99.90
15947;DHT22;8072;52.554;7.966;2023-05-29T12:53:04;19.60;99.90
15947;DHT22;8072;52.554;7.966;2023-05-29T12:55:32;19.70;99.90
15947;DHT22;8072;52.554;7.966;2023-05-29T12:58:12;19.70;99.90
15947;DHT22;8072;52.554;7.966;2023-05-29T13:00:40;19.70;99.90
15947;DHT22;8072;52.554;7.966;2023-05-29T13:03:07;19.70;99.90
15947;DHT22;8072;52.554;7.966;2023-05-29T13:05:33;19.70;99.90
15947;DHT22;8072;52.554;7.966;2023-05-29T13:07:59;19.70;99.90
15947;DHT22;8072;52.554;7.966;2023-05-29T13:10:26;19.70;99.90
15947;DHT22;8072;52.554;7.966;2023-05-29T13:12:54;19.70;99.90
15947;DHT22;8072;52.554;7.966;2023-05-29T13:15:22;19.70;99.90
15947;DHT22;8072;52.554;7.966;2023-05-29T13:17:49;19.60;99.90
15947;DHT22;8072;52.554;7.966;2023-05-29T13:20:16;19.60;99.90
15947;DHT22;8072;52.554;7.966;2023-05-29T13:22:43;19.60;99.90
15947;DHT22;8072;52.554;7.966;2023-05-29T13:25:12;19.60;99.90
15947;DHT22;8072;52.554;7.966;2023-05-29T13:27:40;19.60;99.90
15947;DHT22;8072;52.554;7.966;2023-05-29T13:30:07;19.70;99.90
15947;DHT22;8072;52.554;7.966;2023-05-29T13:32:34;19.80;99.90
15947;DHT22;8072;52.554;7.966;2023-05-29T13:34:59;19.90;99.90
15947;DHT22;8072;52.554;7.966;2023-05-29T13:37:25;19.90;99.90
15947;DHT22;8072;52.554;7.966;2023-05-29T13:39:52;19.90;99.90
15947;DHT22;8072;52.554;7.966;2023-05-29T13:42:19;20.00;99.90
15947;DHT22;8072;52.554;7.966;2023-05-29T13:44:46;20.10;99.90
15947;DHT22;8072;52.554;7.966;2023-05-29T13:47:13;20.30;99.90
15947;DHT22;8072;52.554;7.966;2023-05-29T13:49:39;20.20;99.90
15947;DHT22;8072;52.554;7.966;2023-05-29T13:52:05;20.20;99.90
15947;DHT22;8072;52.554;7.966;2023-05-29T13:54:32;20.20;99.90
15947;DHT22;8072;52.554;7.966;2023-05-29T13:57:01;20.20;99.90
15947;DHT22;8072;52.554;7.966;2023-05-29T13:59:32;20.10;99.90
15947;DHT22;8072;52.554;7.966;2023-05-29T14:01:58;20.10;99.90
15947;DHT22;8072;52.554;7.966;2023-05-29T14:04:24;20.00;99.90
15947;DHT22;8072;52.554;7.966;2023-05-29T14:06:50;20.00;99.90
15947;DHT22;8072;52.554;7.966;2023-05-29T14:09:16;20.00;99.90
15947;DHT22;8072;52.554;7.966;2023-05-29T14:11:44;19.90;99.90
15947;DHT22;8072;52.554;7.966;2023-05-29T14:14:10;19.90;99.90
15947;DHT22;8072;52.554;7.966;2023-05-29T14:16:35;19.90;99.90
15947;DHT22;8072;52.554;7.966;2023-05-29T14:19:01;19.90;99.90
15947;DHT22;8072;52.554;7.966;2023-05-29T14:21:27;19.90;99.90
15947;DHT22;8072;52.554;7.966;2023-05-29T14:23:53;19.90;99.90
15947;DHT22;8072;52.554;7.966;2023-05-29T14:26:18;19.90;99.90
15947;DHT22;8072;52.554;7.966;2023-05-29T14:28:44;20.00;99.90
15947;DHT22;8072;52.554;7.966;2023-05-29T14:31:10;20.00;99.90
15947;DHT22;8072;52.554;7.966;2023-05-29T14:33:36;20.00;99.90
15947;DHT22;8072;52.554;7.966;2023-05-29T14:36:04;20.10;99.90
15947;DHT22;8072;52.554;7.966;2023-05-29T14:38:30;20.00;99.90
15947;DHT22;8072;52.554;7.966;2023-05-29T14:40:56;20.00;99.90
15947;DHT22;8072;52.554;7.966;2023-05-29T14:43:21;19.90;99.90
15947;DHT22;8072;52.554;7.966;2023-05-29T14:45:47;19.90;99.90
15947;DHT22;8072;52.554;7.966;2023-05-29T14:48:13;19.90;99.90
15947;DHT22;8072;52.554;7.966;2023-05-29T14:50:38;19.90;99.90
15947;DHT22;8072;52.554;7.966;2023-05-29T14:53:04;19.80;99.90
15947;DHT22;8072;52.554;7.966;2023-05-29T14:55:31;19.90;99.90
15947;DHT22;8072;52.554;7.966;2023-05-29T14:58:05;19.90;99.90
15947;DHT22;8072;52.554;7.966;2023-05-29T15:00:31;19.90;99.90
15947;DHT22;8072;52.554;7.966;2023-05-29T15:02:57;19.90;99.90
15947;DHT22;8072;52.554;7.966;2023-05-29T15:05:26;19.90;99.90
15947;DHT22;8072;52.554;7.966;2023-05-29T15:07:52;19.80;99.90
15947;DHT22;8072;52.554;7.966;2023-05-29T15:10:20;19.80;99.90
15947;DHT22;8072;52.554;7.966;2023-05-29T15:12:46;19.80;99.90
15947;DHT22;8072;52.554;7.966;2023-05-29T15:15:12;19.70;99.90
15947;DHT22;8072;52.554;7.966;2023-05-29T15:17:38;19.60;99.90
15947;DHT22;8072;52.554;7.966;2023-05-29T15:20:05;19.70;99.90
15947;DHT22;8072;52.554;7.966;2023-05-29T15:22:31;19.60;99.90
15947;DHT22;8072;52.554;7.966;2023-05-29T15:24:57;19.50;99.90
15947;DHT22;8072;52.554;7.966;2023-05-29T15:27:23;19.40;99.90
15947;DHT22;8072;52.554;7.966;2023-05-29T15:29:52;19.40;99.90
15947;DHT22;8072;52.554;7.966;2023-05-29T15:32:18;19.40;99.90
15947;DHT22;8072;52.554;7.966;2023-05-29T15:34:44;19.40;99.90
15947;DHT22;8072;52.554;7.966;2023-05-29T15:37:09;19.30;99.90
15947;DHT22;8072;52.554;7.966;2023-05-29T15:39:35;19.30;99.90
15947;DHT22;8072;52.554;7.966;2023-05-29T15:42:03;19.30;99.90
15947;DHT22;8072;52.554;7.966;2023-05-29T15:44:29;19.20;99.90
15947;DHT22;8072;52.554;7.966;2023-05-29T15:46:55;19.30;99.90
15947;DHT22;8072;52.554;7.966;2023-05-29T15:49:20;19.20;99.90
15947;DHT22;8072;52.554;7.966;2023-05-29T15:51:46;19.10;99.90
15947;DHT22;8072;52.554;7.966;2023-05-29T15:54:12;19.10;99.90
15947;DHT22;8072;52.554;7.966;2023-05-29T15:56:37;19.20;99.90
15947;DHT22;8072;52.554;7.966;2023-05-29T15:59:03;19.20;99.90
15947;DHT22;8072;52.554;7.966;2023-05-29T16:01:30;19.20;99.90
15947;DHT22;8072;52.554;7.966;2023-05-29T16:03:56;19.10;99.90
15947;DHT22;8072;52.554;7.966;2023-05-29T16:06:21;19.10;99.90
15947;DHT22;8072;52.554;7.966;2023-05-29T16:08:47;19.10;99.90
15947;DHT22;8072;52.554;7.966;2023-05-29T16:11:13;19.00;99.90
15947;DHT22;8072;52.554;7.966;2023-05-29T16:13:39;19.00;99.90
15947;DHT22;8072;52.554;7.966;2023-05-29T16:16:07;19.00;99.90
15947;DHT22;8072;52.554;7.966;2023-05-29T16:18:32;19.00;99.90
15947;DHT22;8072;52.554;7.966;2023-05-29T16:20:58;18.90;99.90
15947;DHT22;8072;52.554;7.966;2023-05-29T16:23:25;18.90;99.90
15947;DHT22;8072;52.554;7.966;2023-05-29T16:25:52;18.80;99.90